sensor_id;sensor_type;location;lat;lon;timestamp;temperature;humidity
55083;DHT22;40978;52.850;6.506;2023-06-26T00:00:41;21.40;99.90
55083;DHT22;40978;52.850;6.506;2023-06-26T00:03:07;21.40;99.90
55083;DHT22;40978;52.850;6.506;2023-06-26T00:05:32;21.40;99.90
55083;DHT22;40978;52.850;6.506;2023-06-26T00:07:58;21.40;99.90
55083;DHT22;40978;52.850;6.506;2023-06-26T00:10:26;21.40;99.90
55083;DHT22;40978;52.850;6.506;2023-06-26T00:12:53;21.40;99.90
55083;DHT22;40978;52.850;6.506;2023-06-26T00:15:19;21.30;99.90
55083;DHT22;40978;52.850;6.506;2023-06-26T00:17:45;21.40;99.90
55083;DHT22;40978;52.850;6.506;2023-06-26T00:20:11;21.40;99.90
55083;DHT22;40978;52.850;6.506;2023-06-26T00:22:36;21.50;99.90
55083;DHT22;40978;52.850;6.506;2023-06-26T00:25:06;21.50;99.90
55083;DHT22;40978;52.850;6.506;2023-06-26T00:27:32;21.50;99.90
55083;DHT22;40978;52.850;6.506;2023-06-26T00:29:58;21.50;99.90
55083;DHT22;40978;52.850;6.506;2023-06-26T00:32:23;21.40;99.90
55083;DHT22;40978;52.850;6.506;2023-06-26T00:34:49;21.40;99.90
55083;DHT22;40978;52.850;6.506;2023-06-26T00:37:15;21.40;99.90
55083;DHT22;40978;52.850;6.506;2023-06-26T00:39:41;21.40;99.90
55083;DHT22;40978;52.850;6.506;2023-06-26T00:42:07;21.30;99.90
55083;DHT22;40978;52.850;6.506;2023-06-26T00:44:32;21.40;99.90
55083;DHT22;40978;52.850;6.506;2023-06-26T00:46:59;21.40;99.90
55083;DHT22;40978;52.850;6.506;2023-06-26T00:49:25;21.40;99.90
55083;DHT22;40978;52.850;6.506;2023-06-26T00:51:51;21.40;99.90
55083;DHT22;40978;52.850;6.506;2023-06-26T00:54:17;21.30;99.90
55083;DHT22;40978;52.850;6.506;2023-06-26T00:56:48;21.40;99.90
55083;DHT22;40978;52.850;6.506;2023-06-26T00:59:14;21.40;99.90
55083;DHT22;40978;52.850;6.506;2023-06-26T01:01:40;21.30;99.90
55083;DHT22;40978;52.850;6.506;2023-06-26T01:04:06;21.30;99.90
55083;DHT22;40978;52.850;6.506;2023-06-26T01:06:32;21.30;99.90
55083;DHT22;40978;52.850;6.506;2023-06-26T01:09:02;21.20;99.90
55083;DHT22;40978;52.850;6.506;2023-06-26T01:11:27;21.20;99.90
55083;DHT22;40978;52.850;6.506;2023-06-26T01:13:54;21.20;99.90
55083;DHT22;40978;52.850;6.506;2023-06-26T01:16:23;21.20;99.90
55083;DHT22;40978;52.850;6.506;2023-06-26T01:18:49;21.10;99.90
55083;DHT22;40978;52.850;6.506;2023-06-26T01:21:15;21.10;99.90
55083;DHT22;40978;52.850;6.506;2023-06-26T01:24:07;21.10;99.90
55083;DHT22;40978;52.850;6.506;2023-06-26T01:26:36;21.10;99.90
55083;DHT22;40978;52.850;6.506;2023-06-26T01:29:06;21.00;99.90
55083;DHT22;40978;52.850;6.506;2023-06-26T01:31:33;21.00;99.90
55083;DHT22;40978;52.850;6.506;2023-06-26T01:34:00;21.00;99.90
55083;DHT22;40978;52.850;6.506;2023-06-26T01:36:27;20.90;99.90
55083;DHT22;40978;52.850;6.506;2023-06-26T01:38:53;20.90;99.90
55083;DHT22;40978;52.850;6.506;2023-06-26T01:41:19;20.90;99.90
55083;DHT22;40978;52.850;6.506;2023-06-26T01:46:58;20.80;99.90
55083;DHT22;40978;52.850;6.506;2023-06-26T01:49:37;20.80;99.90
55083;DHT22;40978;52.850;6.506;2023-06-26T01:52:20;20.80;99.90
55083;DHT22;40978;52.850;6.506;2023-06-26T01:55:02;20.80;99.90
55083;DHT22;40978;52.850;6.506;2023-06-26T01:57:31;20.80;99.90
55083;DHT22;40978;52.850;6.506;2023-06-26T01:59:58;20.70;99.90
55083;DHT22;40978;52.850;6.506;2023-06-26T02:02:24;20.80;99.90
55083;DHT22;40978;52.850;6.506;2023-06-26T02:04:51;20.80;99.90
55083;DHT22;40978;52.850;6.506;2023-06-26T02:07:17;20.80;99.90
55083;DHT22;40978;52.850;6.506;2023-06-26T02:09:43;20.70;99.90
55083;DHT22;40978;52.850;6.506;2023-06-26T02:12:09;20.70;99.90
55083;DHT22;40978;52.850;6.506;2023-06-26T02:14:35;20.70;99.90
55083;DHT22;40978;52.850;6.506;2023-06-26T02:17:00;20.70;99.90
55083;DHT22;40978;52.850;6.506;2023-06-26T02:19:26;20.60;99.90
55083;DHT22;40978;52.850;6.506;2023-06-26T02:21:53;20.70;99.90
55083;DHT22;40978;52.850;6.506;2023-06-26T02:24:19;20.60;99.90
55083;DHT22;40978;52.850;6.506;2023-06-26T02:26:45;20.60;99.90
55083;DHT22;40978;52.850;6.506;2023-06-26T02:29:11;20.60;99.90
55083;DHT22;40978;52.850;6.506;2023-06-26T02:31:37;20.50;99.90
55083;DHT22;40978;52.850;6.506;2023-06-26T02:34:04;20.50;99.90
55083;DHT22;40978;52.850;6.506;2023-06-26T02:36:30;20.50;99.90
55083;DHT22;40978;52.850;6.506;2023-06-26T02:38:55;20.50;99.90
55083;DHT22;40978;52.850;6.506;2023-06-26T02:41:21;20.50;99.90
55083;DHT22;40978;52.850;6.506;2023-06-26T02:43:47;20.40;99.90
55083;DHT22;40978;52.850;6.506;2023-06-26T02:46:13;20.40;99.90
55083;DHT22;40978;52.850;6.506;2023-06-26T02:48:38;20.40;99.90
55083;DHT22;40978;52.850;6.506;2023-06-26T02:51:04;20.40;99.90
55083;DHT22;40978;52.850;6.506;2023-06-26T02:53:31;20.40;99.90
55083;DHT22;40978;52.850;6.506;2023-06-26T02:55:56;20.30;99.90
55083;DHT22;40978;52.850;6.506;2023-06-26T02:58:22;20.30;99.90
55083;DHT22;40978;52.850;6.506;2023-06-26T03:00:48;20.30;99.90
55083;DHT22;40978;52.850;6.506;2023-06-26T03:03:13;20.30;99.90
55083;DHT22;40978;52.850;6.506;2023-06-26T03:05:39;20.30;99.90
55083;DHT22;40978;52.850;6.506;2023-06-26T03:08:05;20.30;99.90
55083;DHT22;40978;52.850;6.506;2023-06-26T03:10:31;20.20;99.90
55083;DHT22;40978;52.850;6.506;2023-06-26T03:12:57;20.20;99.90
55083;DHT22;40978;52.850;6.506;2023-06-26T03:15:22;20.20;99.90
55083;DHT22;40978;52.850;6.506;2023-06-26T03:17:48;20.20;99.90
55083;DHT22;40978;52.850;6.506;2023-06-26T03:20:14;20.10;99.90
55083;DHT22;40978;52.850;6.506;2023-06-26T03:22:41;20.10;99.90
55083;DHT22;40978;52.850;6.506;2023-06-26T03:25:06;20.10;99.90
55083;DHT22;40978;52.850;6.506;2023-06-26T03:27:33;20.10;99.90
55083;DHT22;40978;52.850;6.506;2023-06-26T03:29:58;20.20;99.90
55083;DHT22;40978;52.850;6.506;2023-06-26T03:32:24;20.20;99.90
55083;DHT22;40978;52.850;6.506;2023-06-26T03:34:50;20.20;99.90
55083;DHT22;40978;52.850;6.506;2023-06-26T03:37:16;20.30;99.90
55083;DHT22;40978;52.850;6.506;2023-06-26T03:39:41;20.20;99.90
55083;DHT22;40978;52.850;6.506;2023-06-26T03:42:07;20.30;99.90
55083;DHT22;40978;52.850;6.506;2023-06-26T03:44:33;20.30;99.90
55083;DHT22;40978;52.850;6.506;2023-06-26T03:46:58;20.30;99.90
55083;DHT22;40978;52.850;6.506;2023-06-26T03:49:24;20.40;99.90
55083;DHT22;40978;52.850;6.506;2023-06-26T03:51:50;20.40;99.90
55083;DHT22;40978;52.850;6.506;2023-06-26T03:54:16;20.50;99.90
55083;DHT22;40978;52.850;6.506;2023-06-26T03:56:41;20.50;99.90
55083;DHT22;40978;52.850;6.506;2023-06-26T03:59:07;20.60;99.90
55083;DHT22;40978;52.850;6.506;2023-06-26T04:01:33;20.60;99.90
55083;DHT22;40978;52.850;6.506;2023-06-26T04:04:00;20.60;99.90
55083;DHT22;40978;52.850;6.506;2023-06-26T04:06:26;20.70;99.90
55083;DHT22;40978;52.850;6.506;2023-06-26T04:08:51;20.70;99.90
55083;DHT22;40978;52.850;6.506;2023-06-26T04:11:17;20.80;99.90
55083;DHT22;40978;52.850;6.506;2023-06-26T04:13:43;20.80;99.90
55083;DHT22;40978;52.850;6.506;2023-06-26T04:16:08;20.90;99.90
55083;DHT22;40978;52.850;6.506;2023-06-26T04:18:37;20.90;99.90
55083;DHT22;40978;52.850;6.506;2023-06-26T04:21:09;20.90;99.90
55083;DHT22;40978;52.850;6.506;2023-06-26T04:23:37;20.90;99.90
55083;DHT22;40978;52.850;6.506;2023-06-26T04:26:03;21.00;99.90
55083;DHT22;40978;52.850;6.506;2023-06-26T04:28:33;21.00;99.90
55083;DHT22;40978;52.850;6.506;2023-06-26T04:31:00;21.00;99.90
55083;DHT22;40978;52.850;6.506;2023-06-26T04:33:27;21.00;99.90
55083;DHT22;40978;52.850;6.506;2023-06-26T04:35:53;21.10;99.90
55083;DHT22;40978;52.850;6.506;2023-06-26T04:38:19;21.10;99.90
55083;DHT22;40978;52.850;6.506;2023-06-26T04:40:45;21.20;99.90
55083;DHT22;40978;52.850;6.506;2023-06-26T04:43:11;21.20;99.90
55083;DHT22;40978;52.850;6.506;2023-06-26T04:45:36;21.20;99.90
55083;DHT22;40978;52.850;6.506;2023-06-26T04:48:03;21.30;99.90
55083;DHT22;40978;52.850;6.506;2023-06-26T04:50:30;21.40;99.90
55083;DHT22;40978;52.850;6.506;2023-06-26T04:52:56;21.40;99.90
55083;DHT22;40978;52.850;6.506;2023-06-26T04:55:24;21.50;99.90
55083;DHT22;40978;52.850;6.506;2023-06-26T04:57:50;21.40;99.90
55083;DHT22;40978;52.850;6.506;2023-06-26T05:00:16;21.50;99.90
55083;DHT22;40978;52.850;6.506;2023-06-26T05:02:42;21.50;99.90
55083;DHT22;40978;52.850;6.506;2023-06-26T05:05:08;21.50;99.90
55083;DHT22;40978;52.850;6.506;2023-06-26T05:07:33;21.50;99.90
55083;DHT22;40978;52.850;6.506;2023-06-26T05:09:59;21.40;99.90
55083;DHT22;40978;52.850;6.506;2023-06-26T05:12:25;21.30;99.90
55083;DHT22;40978;52.850;6.506;2023-06-26T05:14:51;21.30;99.90
55083;DHT22;40978;52.850;6.506;2023-06-26T05:17:16;21.30;99.90
55083;DHT22;40978;52.850;6.506;2023-06-26T05:19:42;21.20;99.90
55083;DHT22;40978;52.850;6.506;2023-06-26T05:22:08;21.20;99.90
55083;DHT22;40978;52.850;6.506;2023-06-26T05:24:38;21.20;99.90
55083;DHT22;40978;52.850;6.506;2023-06-26T05:27:04;21.10;99.90
55083;DHT22;40978;52.850;6.506;2023-06-26T05:29:31;21.10;99.90
55083;DHT22;40978;52.850;6.506;2023-06-26T05:31:57;21.10;99.90
55083;DHT22;40978;52.850;6.506;2023-06-26T05:34:23;21.00;99.90
55083;DHT22;40978;52.850;6.506;2023-06-26T05:36:57;21.00;99.90
55083;DHT22;40978;52.850;6.506;2023-06-26T05:39:56;21.00;99.90
55083;DHT22;40978;52.850;6.506;2023-06-26T05:42:22;20.80;99.90
55083;DHT22;40978;52.850;6.506;2023-06-26T05:44:47;20.80;99.90
55083;DHT22;40978;52.850;6.506;2023-06-26T05:47:13;20.80;99.90
55083;DHT22;40978;52.850;6.506;2023-06-26T05:49:39;20.70;99.90
55083;DHT22;40978;52.850;6.506;2023-06-26T05:52:22;20.80;99.90
55083;DHT22;40978;52.850;6.506;2023-06-26T05:54:48;20.80;99.90
55083;DHT22;40978;52.850;6.506;2023-06-26T05:57:15;20.80;99.90
55083;DHT22;40978;52.850;6.506;2023-06-26T05:59:43;20.80;99.90
55083;DHT22;40978;52.850;6.506;2023-06-26T06:02:09;20.90;99.90
55083;DHT22;40978;52.850;6.506;2023-06-26T06:04:34;21.00;99.90
55083;DHT22;40978;52.850;6.506;2023-06-26T06:07:00;21.10;99.90
55083;DHT22;40978;52.850;6.506;2023-06-26T06:09:26;21.00;99.90
55083;DHT22;40978;52.850;6.506;2023-06-26T06:11:52;21.10;99.90
55083;DHT22;40978;52.850;6.506;2023-06-26T06:14:18;21.10;99.90
55083;DHT22;40978;52.850;6.506;2023-06-26T06:16:43;21.10;99.90
55083;DHT22;40978;52.850;6.506;2023-06-26T06:19:09;21.10;99.90
55083;DHT22;40978;52.850;6.506;2023-06-26T06:21:38;21.10;99.90
55083;DHT22;40978;52.850;6.506;2023-06-26T06:24:04;21.10;99.90
55083;DHT22;40978;52.850;6.506;2023-06-26T06:26:30;21.10;99.90
55083;DHT22;40978;52.850;6.506;2023-06-26T06:28:56;21.20;99.90
55083;DHT22;40978;52.850;6.506;2023-06-26T06:31:21;21.20;99.90
55083;DHT22;40978;52.850;6.506;2023-06-26T06:33:47;21.30;99.90
55083;DHT22;40978;52.850;6.506;2023-06-26T06:36:13;21.30;99.90
55083;DHT22;40978;52.850;6.506;2023-06-26T06:38:38;21.40;99.90
55083;DHT22;40978;52.850;6.506;2023-06-26T06:41:09;21.50;99.90
55083;DHT22;40978;52.850;6.506;2023-06-26T06:43:34;21.60;99.90
55083;DHT22;40978;52.850;6.506;2023-06-26T06:46:01;21.70;99.90
55083;DHT22;40978;52.850;6.506;2023-06-26T06:48:27;21.70;99.90
55083;DHT22;40978;52.850;6.506;2023-06-26T06:50:53;21.80;99.90
55083;DHT22;40978;52.850;6.506;2023-06-26T06:53:19;21.80;99.90
55083;DHT22;40978;52.850;6.506;2023-06-26T06:55:49;21.90;99.90
55083;DHT22;40978;52.850;6.506;2023-06-26T06:58:15;21.90;99.90
55083;DHT22;40978;52.850;6.506;2023-06-26T07:00:42;22.00;99.90
55083;DHT22;40978;52.850;6.506;2023-06-26T07:03:08;22.00;99.90
55083;DHT22;40978;52.850;6.506;2023-06-26T07:05:36;22.00;99.90
55083;DHT22;40978;52.850;6.506;2023-06-26T07:08:02;22.00;99.90
55083;DHT22;40978;52.850;6.506;2023-06-26T07:10:28;21.80;99.90
55083;DHT22;40978;52.850;6.506;2023-06-26T07:12:54;21.80;99.90
55083;DHT22;40978;52.850;6.506;2023-06-26T07:15:20;21.90;99.90
55083;DHT22;40978;52.850;6.506;2023-06-26T07:17:46;21.90;99.90
55083;DHT22;40978;52.850;6.506;2023-06-26T07:20:11;22.00;99.90
55083;DHT22;40978;52.850;6.506;2023-06-26T07:22:41;22.10;99.90
55083;DHT22;40978;52.850;6.506;2023-06-26T07:25:07;22.20;99.90
55083;DHT22;40978;52.850;6.506;2023-06-26T07:27:35;22.30;99.90
55083;DHT22;40978;52.850;6.506;2023-06-26T07:30:01;22.50;99.90
55083;DHT22;40978;52.850;6.506;2023-06-26T07:32:27;22.60;99.90
55083;DHT22;40978;52.850;6.506;2023-06-26T07:34:53;22.60;99.90
55083;DHT22;40978;52.850;6.506;2023-06-26T07:37:18;22.60;99.90
55083;DHT22;40978;52.850;6.506;2023-06-26T07:39:44;22.70;99.90
55083;DHT22;40978;52.850;6.506;2023-06-26T07:42:10;22.80;99.90
55083;DHT22;40978;52.850;6.506;2023-06-26T07:44:36;22.90;99.90
55083;DHT22;40978;52.850;6.506;2023-06-26T07:47:02;23.00;99.90
55083;DHT22;40978;52.850;6.506;2023-06-26T07:49:28;22.90;99.90
55083;DHT22;40978;52.850;6.506;2023-06-26T07:51:53;22.90;99.90
55083;DHT22;40978;52.850;6.506;2023-06-26T07:54:19;23.00;99.90
55083;DHT22;40978;52.850;6.506;2023-06-26T07:57:01;22.90;99.90
55083;DHT22;40978;52.850;6.506;2023-06-26T07:59:29;22.90;99.90
55083;DHT22;40978;52.850;6.506;2023-06-26T08:01:56;22.90;99.90
55083;DHT22;40978;52.850;6.506;2023-06-26T08:04:24;23.00;99.90
55083;DHT22;40978;52.850;6.506;2023-06-26T08:06:51;23.10;99.90
55083;DHT22;40978;52.850;6.506;2023-06-26T08:09:19;23.20;99.90
55083;DHT22;40978;52.850;6.506;2023-06-26T08:11:45;23.30;99.90
55083;DHT22;40978;52.850;6.506;2023-06-26T08:14:11;23.50;99.90
55083;DHT22;40978;52.850;6.506;2023-06-26T08:16:43;23.80;99.90
55083;DHT22;40978;52.850;6.506;2023-06-26T08:19:10;23.90;99.90
55083;DHT22;40978;52.850;6.506;2023-06-26T08:21:36;23.90;99.90
55083;DHT22;40978;52.850;6.506;2023-06-26T08:24:02;23.80;99.90
55083;DHT22;40978;52.850;6.506;2023-06-26T08:26:28;23.80;99.90
55083;DHT22;40978;52.850;6.506;2023-06-26T08:28:54;23.70;99.90
55083;DHT22;40978;52.850;6.506;2023-06-26T08:31:20;23.60;99.90
55083;DHT22;40978;52.850;6.506;2023-06-26T08:33:46;23.60;99.90
55083;DHT22;40978;52.850;6.506;2023-06-26T08:36:12;23.60;99.90
55083;DHT22;40978;52.850;6.506;2023-06-26T08:38:39;23.70;99.90
55083;DHT22;40978;52.850;6.506;2023-06-26T08:41:07;23.70;99.90
55083;DHT22;40978;52.850;6.506;2023-06-26T08:43:34;23.50;99.90
55083;DHT22;40978;52.850;6.506;2023-06-26T08:46:00;23.40;99.90
55083;DHT22;40978;52.850;6.506;2023-06-26T08:48:25;23.20;99.90
55083;DHT22;40978;52.850;6.506;2023-06-26T08:50:55;23.20;99.90
55083;DHT22;40978;52.850;6.506;2023-06-26T08:53:49;23.20;99.90
55083;DHT22;40978;52.850;6.506;2023-06-26T08:56:17;23.10;99.90
55083;DHT22;40978;52.850;6.506;2023-06-26T08:58:46;23.40;99.90
55083;DHT22;40978;52.850;6.506;2023-06-26T09:01:12;23.70;99.90
55083;DHT22;40978;52.850;6.506;2023-06-26T09:03:38;24.00;99.90
55083;DHT22;40978;52.850;6.506;2023-06-26T09:06:04;24.10;99.90
55083;DHT22;40978;52.850;6.506;2023-06-26T09:08:29;24.00;99.90
55083;DHT22;40978;52.850;6.506;2023-06-26T09:10:55;23.70;99.90
55083;DHT22;40978;52.850;6.506;2023-06-26T09:13:21;23.40;99.90
55083;DHT22;40978;52.850;6.506;2023-06-26T09:15:47;23.50;99.90
55083;DHT22;40978;52.850;6.506;2023-06-26T09:18:13;23.70;99.90
55083;DHT22;40978;52.850;6.506;2023-06-26T09:20:42;23.70;99.90
55083;DHT22;40978;52.850;6.506;2023-06-26T09:23:08;24.10;99.90
55083;DHT22;40978;52.850;6.506;2023-06-26T09:25:38;24.30;99.90
55083;DHT22;40978;52.850;6.506;2023-06-26T09:28:05;24.40;99.90
55083;DHT22;40978;52.850;6.506;2023-06-26T09:30:32;24.50;99.90
55083;DHT22;40978;52.850;6.506;2023-06-26T09:33:16;24.40;99.90
55083;DHT22;40978;52.850;6.506;2023-06-26T09:35:44;24.60;99.90
55083;DHT22;40978;52.850;6.506;2023-06-26T09:38:10;24.80;99.90
55083;DHT22;40978;52.850;6.506;2023-06-26T09:40:36;24.90;99.90
55083;DHT22;40978;52.850;6.506;2023-06-26T09:43:07;25.10;99.90
55083;DHT22;40978;52.850;6.506;2023-06-26T09:45:34;25.30;99.40
55083;DHT22;40978;52.850;6.506;2023-06-26T09:48:05;25.50;99.40
55083;DHT22;40978;52.850;6.506;2023-06-26T09:50:33;25.50;96.40
55083;DHT22;40978;52.850;6.506;2023-06-26T09:53:13;25.40;96.90
55083;DHT22;40978;52.850;6.506;2023-06-26T09:55:39;25.30;94.80
55083;DHT22;40978;52.850;6.506;2023-06-26T09:58:11;25.20;94.30
55083;DHT22;40978;52.850;6.506;2023-06-26T10:00:43;24.80;95.10
55083;DHT22;40978;52.850;6.506;2023-06-26T10:03:12;24.70;95.30
55083;DHT22;40978;52.850;6.506;2023-06-26T10:05:39;24.90;96.20
55083;DHT22;40978;52.850;6.506;2023-06-26T10:08:05;25.00;93.60
55083;DHT22;40978;52.850;6.506;2023-06-26T10:10:35;24.80;93.60
55083;DHT22;40978;52.850;6.506;2023-06-26T10:13:08;24.70;94.80
55083;DHT22;40978;52.850;6.506;2023-06-26T10:15:35;24.80;94.90
55083;DHT22;40978;52.850;6.506;2023-06-26T10:18:02;25.20;92.80
55083;DHT22;40978;52.850;6.506;2023-06-26T10:20:28;25.50;92.80
55083;DHT22;40978;52.850;6.506;2023-06-26T10:22:57;25.90;92.20
55083;DHT22;40978;52.850;6.506;2023-06-26T10:25:25;26.20;89.90
55083;DHT22;40978;52.850;6.506;2023-06-26T10:27:54;25.90;86.20
55083;DHT22;40978;52.850;6.506;2023-06-26T10:30:27;25.20;90.20
55083;DHT22;40978;52.850;6.506;2023-06-26T10:32:55;24.60;92.60
55083;DHT22;40978;52.850;6.506;2023-06-26T10:35:21;24.60;93.00
55083;DHT22;40978;52.850;6.506;2023-06-26T10:37:50;24.80;94.10
55083;DHT22;40978;52.850;6.506;2023-06-26T10:40:25;25.20;94.50
55083;DHT22;40978;52.850;6.506;2023-06-26T10:43:05;25.50;93.70
55083;DHT22;40978;52.850;6.506;2023-06-26T10:45:34;25.60;92.40
55083;DHT22;40978;52.850;6.506;2023-06-26T10:48:00;25.40;88.70
55083;DHT22;40978;52.850;6.506;2023-06-26T10:50:29;25.20;90.50
55083;DHT22;40978;52.850;6.506;2023-06-26T10:55:37;25.70;90.50
55083;DHT22;40978;52.850;6.506;2023-06-26T10:58:27;26.00;89.50
55083;DHT22;40978;52.850;6.506;2023-06-26T11:01:14;26.20;88.90
55083;DHT22;40978;52.850;6.506;2023-06-26T11:06:24;26.10;79.70
55083;DHT22;40978;52.850;6.506;2023-06-26T11:08:51;25.50;79.10
55083;DHT22;40978;52.850;6.506;2023-06-26T11:11:19;25.30;84.50
55083;DHT22;40978;52.850;6.506;2023-06-26T11:13:46;25.30;81.40
55083;DHT22;40978;52.850;6.506;2023-06-26T11:16:13;25.20;81.60
55083;DHT22;40978;52.850;6.506;2023-06-26T11:18:40;25.00;84.70
55083;DHT22;40978;52.850;6.506;2023-06-26T11:21:10;25.20;90.00
55083;DHT22;40978;52.850;6.506;2023-06-26T11:23:37;25.70;88.40
55083;DHT22;40978;52.850;6.506;2023-06-26T11:26:19;26.00;85.80
55083;DHT22;40978;52.850;6.506;2023-06-26T11:28:55;26.10;84.50
55083;DHT22;40978;52.850;6.506;2023-06-26T11:31:25;25.90;81.60
55083;DHT22;40978;52.850;6.506;2023-06-26T11:33:52;26.00;84.40
55083;DHT22;40978;52.850;6.506;2023-06-26T11:36:18;26.40;84.80
55083;DHT22;40978;52.850;6.506;2023-06-26T11:38:43;26.40;79.50
55083;DHT22;40978;52.850;6.506;2023-06-26T11:41:09;26.00;76.80
55083;DHT22;40978;52.850;6.506;2023-06-26T11:43:35;25.90;81.40
55083;DHT22;40978;52.850;6.506;2023-06-26T11:46:01;25.90;80.20
55083;DHT22;40978;52.850;6.506;2023-06-26T11:48:26;26.10;82.80
55083;DHT22;40978;52.850;6.506;2023-06-26T11:50:53;26.40;77.90
55083;DHT22;40978;52.850;6.506;2023-06-26T11:53:19;26.60;81.20
55083;DHT22;40978;52.850;6.506;2023-06-26T11:55:45;26.70;77.80
55083;DHT22;40978;52.850;6.506;2023-06-26T11:58:11;26.70;73.00
55083;DHT22;40978;52.850;6.506;2023-06-26T12:00:41;26.60;74.50
55083;DHT22;40978;52.850;6.506;2023-06-26T12:03:08;26.40;72.00
55083;DHT22;40978;52.850;6.506;2023-06-26T12:05:34;26.20;77.40
55083;DHT22;40978;52.850;6.506;2023-06-26T12:08:00;26.00;78.30
55083;DHT22;40978;52.850;6.506;2023-06-26T12:10:27;25.80;78.00
55083;DHT22;40978;52.850;6.506;2023-06-26T12:12:53;25.70;80.60
55083;DHT22;40978;52.850;6.506;2023-06-26T12:15:21;25.80;80.40
55083;DHT22;40978;52.850;6.506;2023-06-26T12:17:47;25.30;80.10
55083;DHT22;40978;52.850;6.506;2023-06-26T12:20:23;25.00;83.20
55083;DHT22;40978;52.850;6.506;2023-06-26T12:22:49;24.80;83.60
55083;DHT22;40978;52.850;6.506;2023-06-26T12:25:20;24.60;83.80
55083;DHT22;40978;52.850;6.506;2023-06-26T12:27:46;24.50;84.60
55083;DHT22;40978;52.850;6.506;2023-06-26T12:30:12;24.80;87.20
55083;DHT22;40978;52.850;6.506;2023-06-26T12:32:38;24.90;85.50
55083;DHT22;40978;52.850;6.506;2023-06-26T12:35:04;25.00;82.00
55083;DHT22;40978;52.850;6.506;2023-06-26T12:37:36;24.80;80.60
55083;DHT22;40978;52.850;6.506;2023-06-26T12:40:03;24.80;82.60
55083;DHT22;40978;52.850;6.506;2023-06-26T12:42:33;24.80;82.20
55083;DHT22;40978;52.850;6.506;2023-06-26T12:44:59;24.90;80.80
55083;DHT22;40978;52.850;6.506;2023-06-26T12:47:35;24.80;83.00
55083;DHT22;40978;52.850;6.506;2023-06-26T12:50:05;24.90;81.90
55083;DHT22;40978;52.850;6.506;2023-06-26T12:52:31;25.10;81.40
55083;DHT22;40978;52.850;6.506;2023-06-26T12:54:57;25.60;81.30
55083;DHT22;40978;52.850;6.506;2023-06-26T12:57:23;25.80;78.80
55083;DHT22;40978;52.850;6.506;2023-06-26T12:59:49;26.00;73.80
55083;DHT22;40978;52.850;6.506;2023-06-26T13:02:15;25.60;72.20
55083;DHT22;40978;52.850;6.506;2023-06-26T13:04:40;25.50;77.00
55083;DHT22;40978;52.850;6.506;2023-06-26T13:07:07;25.20;76.00
55083;DHT22;40978;52.850;6.506;2023-06-26T13:09:34;25.00;77.50
55083;DHT22;40978;52.850;6.506;2023-06-26T13:12:01;24.80;76.20
55083;DHT22;40978;52.850;6.506;2023-06-26T13:14:29;24.60;75.50
55083;DHT22;40978;52.850;6.506;2023-06-26T13:16:55;24.60;72.40
55083;DHT22;40978;52.850;6.506;2023-06-26T13:19:21;24.60;73.90
55083;DHT22;40978;52.850;6.506;2023-06-26T13:21:47;24.60;75.30
55083;DHT22;40978;52.850;6.506;2023-06-26T13:24:13;24.70;79.50
55083;DHT22;40978;52.850;6.506;2023-06-26T13:26:39;25.00;76.50
55083;DHT22;40978;52.850;6.506;2023-06-26T13:29:05;25.20;79.10
55083;DHT22;40978;52.850;6.506;2023-06-26T13:31:31;25.40;74.50
55083;DHT22;40978;52.850;6.506;2023-06-26T13:34:00;25.60;74.40
55083;DHT22;40978;52.850;6.506;2023-06-26T13:36:26;25.30;73.60
55083;DHT22;40978;52.850;6.506;2023-06-26T13:38:52;25.30;76.90
55083;DHT22;40978;52.850;6.506;2023-06-26T13:41:24;25.20;75.40
55083;DHT22;40978;52.850;6.506;2023-06-26T13:43:50;25.30;77.80
55083;DHT22;40978;52.850;6.506;2023-06-26T13:46:17;25.40;77.90
55083;DHT22;40978;52.850;6.506;2023-06-26T13:48:46;25.40;78.20
55083;DHT22;40978;52.850;6.506;2023-06-26T13:51:12;25.30;76.00
55083;DHT22;40978;52.850;6.506;2023-06-26T13:53:37;25.20;76.40
55083;DHT22;40978;52.850;6.506;2023-06-26T13:56:03;25.30;77.60
55083;DHT22;40978;52.850;6.506;2023-06-26T13:58:30;25.50;76.70
55083;DHT22;40978;52.850;6.506;2023-06-26T14:00:58;25.60;75.90
55083;DHT22;40978;52.850;6.506;2023-06-26T14:03:25;25.70;77.40
55083;DHT22;40978;52.850;6.506;2023-06-26T14:05:51;25.80;75.30
55083;DHT22;40978;52.850;6.506;2023-06-26T14:08:17;25.50;74.50
55083;DHT22;40978;52.850;6.506;2023-06-26T14:10:43;24.90;73.10
55083;DHT22;40978;52.850;6.506;2023-06-26T14:13:08;24.50;75.50
55083;DHT22;40978;52.850;6.506;2023-06-26T14:15:34;24.30;78.00
55083;DHT22;40978;52.850;6.506;2023-06-26T14:18:01;24.40;81.10
55083;DHT22;40978;52.850;6.506;2023-06-26T14:20:28;24.60;80.70
55083;DHT22;40978;52.850;6.506;2023-06-26T14:22:54;24.80;77.40
55083;DHT22;40978;52.850;6.506;2023-06-26T14:25:20;24.70;78.00
55083;DHT22;40978;52.850;6.506;2023-06-26T14:27:46;24.50;77.10
55083;DHT22;40978;52.850;6.506;2023-06-26T14:30:11;24.40;74.60
55083;DHT22;40978;52.850;6.506;2023-06-26T14:32:37;24.20;74.70
55083;DHT22;40978;52.850;6.506;2023-06-26T14:35:03;23.90;76.00
55083;DHT22;40978;52.850;6.506;2023-06-26T14:37:30;23.70;76.30
55083;DHT22;40978;52.850;6.506;2023-06-26T14:39:56;23.30;78.00
55083;DHT22;40978;52.850;6.506;2023-06-26T14:42:23;23.10;79.70
55083;DHT22;40978;52.850;6.506;2023-06-26T14:44:48;23.10;81.20
55083;DHT22;40978;52.850;6.506;2023-06-26T14:47:19;23.20;80.60
55083;DHT22;40978;52.850;6.506;2023-06-26T14:49:44;23.50;79.80
55083;DHT22;40978;52.850;6.506;2023-06-26T14:52:10;23.70;78.30
55083;DHT22;40978;52.850;6.506;2023-06-26T14:54:36;23.80;79.60
55083;DHT22;40978;52.850;6.506;2023-06-26T14:57:03;24.00;77.70
55083;DHT22;40978;52.850;6.506;2023-06-26T14:59:29;24.10;79.10
55083;DHT22;40978;52.850;6.506;2023-06-26T15:01:55;24.00;76.80
55083;DHT22;40978;52.850;6.506;2023-06-26T15:04:20;23.90;74.30
55083;DHT22;40978;52.850;6.506;2023-06-26T15:06:46;23.60;75.20
55083;DHT22;40978;52.850;6.506;2023-06-26T15:09:12;23.40;75.60
55083;DHT22;40978;52.850;6.506;2023-06-26T15:11:37;23.20;75.50
55083;DHT22;40978;52.850;6.506;2023-06-26T15:14:03;23.20;78.30
55083;DHT22;40978;52.850;6.506;2023-06-26T15:16:29;23.20;79.50
55083;DHT22;40978;52.850;6.506;2023-06-26T15:18:54;23.20;80.30
55083;DHT22;40978;52.850;6.506;2023-06-26T15:21:20;23.20;80.40
55083;DHT22;40978;52.850;6.506;2023-06-26T15:23:47;23.20;78.50
55083;DHT22;40978;52.850;6.506;2023-06-26T15:26:12;23.00;77.60
55083;DHT22;40978;52.850;6.506;2023-06-26T15:28:39;22.90;78.30
55083;DHT22;40978;52.850;6.506;2023-06-26T15:31:05;23.00;79.60
55083;DHT22;40978;52.850;6.506;2023-06-26T15:33:31;23.10;77.20
55083;DHT22;40978;52.850;6.506;2023-06-26T15:35:57;22.90;79.40
55083;DHT22;40978;52.850;6.506;2023-06-26T15:38:23;22.70;79.70